createdAt,value
2016-10-07T00:00:39.860Z,18.84
2016-10-07T00:01:22.437Z,18.82
2016-10-07T00:02:04.984Z,18.88
2016-10-07T00:02:47.549Z,18.82
2016-10-07T00:03:30.103Z,18.87
2016-10-07T00:04:12.732Z,18.67
2016-10-07T00:04:55.261Z,18.62
2016-10-07T00:05:37.804Z,18.7
2016-10-07T00:06:20.351Z,18.51
2016-10-07T00:07:02.924Z,18.52
2016-10-07T00:07:45.481Z,18.6
2016-10-07T00:08:28.012Z,18.51
2016-10-07T00:09:10.583Z,18.58
2016-10-07T00:09:53.023Z,18.6
2016-10-07T00:10:35.699Z,18.39
2016-10-07T00:11:20.893Z,18.48
2016-10-07T00:12:03.445Z,18.44
2016-10-07T00:12:45.979Z,18.37
2016-10-07T00:13:29.210Z,18.37
2016-10-07T00:14:11.579Z,18.33
2016-10-07T00:14:54.237Z,18.33
2016-10-07T00:15:36.826Z,18.36
2016-10-07T00:16:19.385Z,18.36
2016-10-07T00:17:02.043Z,18.45
2016-10-07T00:17:44.607Z,18.32
2016-10-07T00:18:27.123Z,18.3
2016-10-07T00:19:10.034Z,18.27
2016-10-07T00:19:52.547Z,18.3
2016-10-07T00:20:35.112Z,18.25
2016-10-07T00:21:17.627Z,18.35
2016-10-07T00:22:00.199Z,18.26
2016-10-07T00:22:42.778Z,18.27
2016-10-07T00:23:25.259Z,18.2
2016-10-07T00:24:07.783Z,18.21
2016-10-07T00:24:50.309Z,18.17
2016-10-07T00:25:32.860Z,18.15
2016-10-07T00:26:15.382Z,18.15
2016-10-07T00:26:57.939Z,18.17
2016-10-07T00:27:40.436Z,18.21
2016-10-07T00:28:23.012Z,18.21
2016-10-07T00:29:05.543Z,18.18
2016-10-07T00:29:48.127Z,18.21
2016-10-07T00:30:30.711Z,18.17
2016-10-07T00:31:13.266Z,18.25
2016-10-07T00:31:55.750Z,18.27
2016-10-07T00:32:38.321Z,18.26
2016-10-07T00:33:20.846Z,18.2
2016-10-07T00:34:03.357Z,18.25
2016-10-07T00:34:45.927Z,18.15
2016-10-07T00:35:28.504Z,18.2
2016-10-07T00:36:11.119Z,18.21
2016-10-07T00:36:53.646Z,18.36
2016-10-07T00:37:36.113Z,18.3
2016-10-07T00:38:18.756Z,18.2
2016-10-07T00:39:01.326Z,18.27
2016-10-07T00:39:43.937Z,18.33
2016-10-07T00:40:26.537Z,18.18
2016-10-07T00:41:09.096Z,18.33
2016-10-07T00:41:51.623Z,18.25
2016-10-07T00:42:34.161Z,18.29
2016-10-07T00:43:16.732Z,18.25
2016-10-07T00:43:59.253Z,18.26
2016-10-07T00:44:41.827Z,18.2
2016-10-07T00:45:24.370Z,18.14
2016-10-07T00:46:06.882Z,18.15
2016-10-07T00:46:49.432Z,18.03
2016-10-07T00:47:31.867Z,18.02
2016-10-07T00:48:14.479Z,18.1
2016-10-07T00:48:57.071Z,18.11
2016-10-07T00:49:39.619Z,18.08
2016-10-07T00:50:22.147Z,18.15
2016-10-07T00:51:04.683Z,18.17
2016-10-07T00:51:47.214Z,18.15
2016-10-07T00:52:29.809Z,18.25
2016-10-07T00:53:12.361Z,18.14
2016-10-07T00:53:54.977Z,18.18
2016-10-07T00:54:37.498Z,18.15
2016-10-07T00:55:20.034Z,18.2
2016-10-07T00:56:02.561Z,18.25
2016-10-07T00:56:45.103Z,18.21
2016-10-07T00:57:27.694Z,18.2
2016-10-07T00:58:10.270Z,18.14
2016-10-07T00:58:52.795Z,18.15
2016-10-07T00:59:35.350Z,18.25
2016-10-07T01:00:17.871Z,18.26
2016-10-07T01:01:00.471Z,18.14
2016-10-07T01:01:43.000Z,18.17
2016-10-07T01:02:25.536Z,18.18
2016-10-07T01:03:08.108Z,18.14
2016-10-07T01:03:50.671Z,18.18
2016-10-07T01:04:33.216Z,18.14
2016-10-07T01:05:15.820Z,18.12
2016-10-07T01:05:58.371Z,18.14
2016-10-07T01:06:40.956Z,18.03
2016-10-07T01:07:23.475Z,18.03
2016-10-07T01:08:06.080Z,17.9
2016-10-07T01:08:48.603Z,17.95
2016-10-07T01:09:31.151Z,17.96
2016-10-07T01:10:13.711Z,17.92
2016-10-07T01:10:56.230Z,18.05
2016-10-07T01:11:38.788Z,18.05
2016-10-07T01:12:21.379Z,17.95
2016-10-07T01:13:03.912Z,18.02
2016-10-07T01:13:46.477Z,17.9
2016-10-07T01:14:29.056Z,17.93
2016-10-07T01:15:11.598Z,17.9
2016-10-07T01:15:54.131Z,17.92
2016-10-07T01:16:36.702Z,17.92
2016-10-07T01:17:19.259Z,18.07
2016-10-07T01:18:01.823Z,17.95
2016-10-07T01:18:44.350Z,18.02
2016-10-07T01:19:26.902Z,17.92
2016-10-07T01:20:09.423Z,17.93
2016-10-07T01:20:51.973Z,17.87
2016-10-07T01:21:34.607Z,17.81
2016-10-07T01:22:17.123Z,17.87
2016-10-07T01:22:59.670Z,17.84
2016-10-07T01:23:42.209Z,17.81
2016-10-07T01:24:24.777Z,17.84
2016-10-07T01:25:07.336Z,17.87
2016-10-07T01:25:49.886Z,17.89
2016-10-07T01:26:32.422Z,17.77
2016-10-07T01:27:14.942Z,17.86
2016-10-07T01:27:57.489Z,17.92
2016-10-07T01:28:40.057Z,17.89
2016-10-07T01:29:22.614Z,17.84
2016-10-07T01:30:05.131Z,17.86
2016-10-07T01:30:47.708Z,17.86
2016-10-07T01:31:30.239Z,17.87
2016-10-07T01:32:12.806Z,18.05
2016-10-07T01:32:55.360Z,17.82
2016-10-07T01:33:37.877Z,17.92
2016-10-07T01:34:20.409Z,17.86
2016-10-07T01:35:02.953Z,17.92
2016-10-07T01:35:45.515Z,17.86
2016-10-07T01:36:28.057Z,17.84
2016-10-07T01:37:10.583Z,17.89
2016-10-07T01:37:53.091Z,17.89
2016-10-07T01:38:35.692Z,17.87
2016-10-07T01:39:18.210Z,17.96
2016-10-07T01:40:00.734Z,17.95
2016-10-07T01:40:43.298Z,18.02
2016-10-07T01:41:25.852Z,17.92
2016-10-07T01:42:08.423Z,17.93
2016-10-07T01:42:50.975Z,18.02
2016-10-07T01:43:33.601Z,17.92
2016-10-07T01:44:16.236Z,17.9
2016-10-07T01:44:58.806Z,17.89
2016-10-07T01:45:41.369Z,17.89
2016-10-07T01:46:23.901Z,17.84
2016-10-07T01:47:06.499Z,18.07
2016-10-07T01:47:49.089Z,18
2016-10-07T01:48:31.605Z,18
2016-10-07T01:49:14.151Z,17.79
2016-10-07T01:49:56.687Z,17.81
2016-10-07T01:50:39.242Z,17.7
2016-10-07T01:51:21.772Z,17.78
2016-10-07T01:52:04.298Z,17.74
2016-10-07T01:52:46.879Z,17.77
2016-10-07T01:53:31.297Z,17.75
2016-10-07T01:54:13.896Z,17.78
2016-10-07T01:54:56.500Z,17.77
2016-10-07T01:55:38.991Z,17.81
2016-10-07T01:56:21.588Z,17.81
2016-10-07T01:57:04.083Z,17.86
2016-10-07T01:57:46.750Z,17.81
2016-10-07T01:58:29.330Z,17.9
2016-10-07T01:59:11.865Z,17.78
2016-10-07T01:59:54.386Z,17.72
2016-10-07T02:00:36.938Z,17.75
2016-10-07T02:01:19.477Z,17.72
2016-10-07T02:02:02.116Z,17.7
2016-10-07T02:02:44.681Z,17.59
2016-10-07T02:03:27.198Z,17.58
2016-10-07T02:04:09.833Z,17.52
2016-10-07T02:04:52.356Z,17.54
2016-10-07T02:05:35.460Z,17.44
2016-10-07T02:06:17.517Z,17.46
2016-10-07T02:07:00.093Z,17.55
2016-10-07T02:07:42.653Z,17.55
2016-10-07T02:08:25.059Z,17.62
2016-10-07T02:09:10.501Z,17.71
2016-10-07T02:09:53.031Z,17.72
2016-10-07T02:10:35.576Z,17.74
2016-10-07T02:11:18.158Z,17.71
2016-10-07T02:12:03.366Z,17.66
2016-10-07T02:12:46.053Z,17.54
2016-10-07T02:13:28.617Z,17.56
2016-10-07T02:14:11.138Z,17.56
2016-10-07T02:14:53.710Z,17.63
2016-10-07T02:15:36.259Z,17.59
2016-10-07T02:16:18.791Z,17.59
2016-10-07T02:17:01.339Z,17.66
2016-10-07T02:17:43.869Z,17.68
2016-10-07T02:18:26.457Z,17.62
2016-10-07T02:19:08.952Z,17.63
2016-10-07T02:19:51.618Z,17.71
2016-10-07T02:20:34.151Z,17.7
2016-10-07T02:21:16.834Z,17.68
2016-10-07T02:22:00.945Z,17.58
2016-10-07T02:22:43.533Z,17.54
2016-10-07T02:23:26.123Z,17.58
2016-10-07T02:24:08.577Z,17.51
2016-10-07T02:24:51.202Z,17.48
2016-10-07T02:25:33.719Z,17.44
2016-10-07T02:26:16.242Z,17.25
2016-10-07T02:26:58.805Z,17.22
2016-10-07T02:27:41.398Z,17.3
2016-10-07T02:28:23.762Z,17.36
2016-10-07T02:29:06.460Z,17.41
2016-10-07T02:29:48.977Z,17.48
2016-10-07T02:30:31.579Z,17.38
2016-10-07T02:31:14.130Z,17.41
2016-10-07T02:31:56.644Z,17.37
2016-10-07T02:32:39.219Z,17.31
2016-10-07T02:33:21.825Z,17.34
2016-10-07T02:34:04.238Z,17.37
2016-10-07T02:34:46.932Z,17.28
2016-10-07T02:35:29.493Z,17.28
2016-10-07T02:36:12.013Z,17.3
2016-10-07T02:36:54.561Z,17.23
2016-10-07T02:37:37.130Z,17.28
2016-10-07T02:38:19.714Z,17.21
2016-10-07T02:39:02.317Z,17.25
2016-10-07T02:39:44.889Z,17.28
2016-10-07T02:40:27.459Z,17.33
2016-10-07T02:41:09.994Z,17.34
2016-10-07T02:41:52.409Z,17.36
2016-10-07T02:42:34.912Z,17.3
2016-10-07T02:43:17.650Z,17.4
2016-10-07T02:44:00.191Z,17.4
2016-10-07T02:44:42.733Z,17.33
2016-10-07T02:45:25.229Z,17.43
2016-10-07T02:46:07.762Z,17.37
2016-10-07T02:46:50.337Z,17.3
2016-10-07T02:47:32.854Z,17.4
2016-10-07T02:48:15.445Z,17.4
2016-10-07T02:48:57.963Z,17.33
2016-10-07T02:49:40.499Z,17.48
2016-10-07T02:50:23.043Z,17.49
2016-10-07T02:51:05.596Z,17.4
2016-10-07T02:51:48.120Z,17.48
2016-10-07T02:52:30.673Z,17.33
2016-10-07T02:53:13.253Z,17.3
2016-10-07T02:53:55.769Z,17.31
2016-10-07T02:54:38.314Z,17.43
2016-10-07T02:55:20.866Z,17.28
2016-10-07T02:56:03.499Z,17.43
2016-10-07T02:56:46.057Z,17.46
2016-10-07T02:57:28.635Z,17.34
2016-10-07T02:58:11.057Z,17.31
2016-10-07T02:58:53.775Z,17.34
2016-10-07T02:59:36.288Z,17.4
2016-10-07T03:00:18.826Z,17.43
2016-10-07T03:01:01.427Z,17.49
2016-10-07T03:01:44.031Z,17.52
2016-10-07T03:02:26.443Z,17.31
2016-10-07T03:03:09.100Z,17.44
2016-10-07T03:03:51.664Z,17.3
2016-10-07T03:04:34.212Z,17.38
2016-10-07T03:05:59.253Z,17.54
2016-10-07T03:06:41.864Z,17.36
2016-10-07T03:07:24.456Z,17.55
2016-10-07T03:08:07.022Z,17.38
2016-10-07T03:08:49.526Z,17.31
2016-10-07T03:09:32.100Z,17.34
2016-10-07T03:10:14.659Z,17.31
2016-10-07T03:10:57.213Z,17.26
2016-10-07T03:11:39.752Z,17.18
2016-10-07T03:12:22.352Z,17.26
2016-10-07T03:13:04.793Z,17.19
2016-10-07T03:13:50.058Z,17.23
2016-10-07T03:14:32.561Z,17.21
2016-10-07T03:15:18.485Z,17.23
2016-10-07T03:16:01.012Z,17.16
2016-10-07T03:16:43.818Z,17.28
2016-10-07T03:17:26.396Z,17.22
2016-10-07T03:18:08.939Z,17.19
2016-10-07T03:18:51.521Z,17.3
2016-10-07T03:19:34.090Z,17.25
2016-10-07T03:20:16.693Z,17.07
2016-10-07T03:20:59.230Z,16.97
2016-10-07T03:21:41.773Z,17.04
2016-10-07T03:22:24.339Z,17
2016-10-07T03:23:06.920Z,17.01
2016-10-07T03:23:49.484Z,17.01
2016-10-07T03:24:32.076Z,17.03
2016-10-07T03:25:14.713Z,17.03
2016-10-07T03:25:57.218Z,17
2016-10-07T03:26:39.777Z,17
2016-10-07T03:27:22.322Z,16.96
2016-10-07T03:28:04.810Z,16.98
2016-10-07T03:28:47.408Z,16.89
2016-10-07T03:29:29.976Z,17
2016-10-07T03:30:12.489Z,17.06
2016-10-07T03:30:55.112Z,17
2016-10-07T03:31:37.664Z,17.01
2016-10-07T03:32:20.261Z,16.91
2016-10-07T03:33:02.820Z,17.08
2016-10-07T03:33:45.406Z,17.06
2016-10-07T03:34:27.915Z,17.12
2016-10-07T03:35:10.517Z,17.04
2016-10-07T03:35:53.069Z,17.03
2016-10-07T03:36:35.672Z,17.07
2016-10-07T03:37:18.243Z,17.07
2016-10-07T03:38:00.783Z,17.07
2016-10-07T03:38:43.393Z,17.18
2016-10-07T03:39:25.992Z,17.06
2016-10-07T03:40:08.559Z,17.07
2016-10-07T03:40:51.117Z,16.94
2016-10-07T03:41:33.553Z,16.98
2016-10-07T03:42:16.161Z,17.01
2016-10-07T03:42:58.924Z,17
2016-10-07T03:43:41.506Z,16.94
2016-10-07T03:44:24.054Z,17.01
2016-10-07T03:45:06.656Z,17.03
2016-10-07T03:45:49.257Z,17.08
2016-10-07T03:46:31.793Z,17.18
2016-10-07T03:47:14.643Z,17.07
2016-10-07T03:47:57.163Z,17.04
2016-10-07T03:48:39.752Z,17.04
2016-10-07T03:49:22.340Z,17.01
2016-10-07T03:50:04.929Z,17.08
2016-10-07T03:50:47.501Z,17.12
2016-10-07T03:51:30.044Z,17.19
2016-10-07T03:52:12.440Z,17.23
2016-10-07T03:52:55.133Z,17.19
2016-10-07T03:53:37.728Z,17.18
2016-10-07T03:54:20.266Z,17.25
2016-10-07T03:55:02.847Z,17.22
2016-10-07T03:55:45.425Z,17.16
2016-10-07T03:56:28.014Z,17.14
2016-10-07T03:57:11.332Z,17.06
2016-10-07T03:57:52.922Z,17.04
2016-10-07T03:58:35.875Z,17.03
2016-10-07T03:59:18.428Z,17.04
2016-10-07T04:00:00.950Z,17.16
2016-10-07T04:00:43.544Z,17.06
2016-10-07T04:01:26.098Z,17.11
2016-10-07T04:02:08.659Z,17.14
2016-10-07T04:02:51.206Z,17.06
2016-10-07T04:03:33.773Z,17.11
2016-10-07T04:04:16.291Z,17.08
2016-10-07T04:04:58.834Z,17.01
2016-10-07T04:05:41.361Z,17.01
2016-10-07T04:06:24.342Z,17
2016-10-07T04:07:06.289Z,16.97
2016-10-07T04:07:49.046Z,17.04
2016-10-07T04:08:31.582Z,17.06
2016-10-07T04:09:14.136Z,17.12
2016-10-07T04:09:56.686Z,17.18
2016-10-07T04:10:39.282Z,17.22
2016-10-07T04:11:21.861Z,17.16
2016-10-07T04:12:04.432Z,17.08
2016-10-07T04:12:46.947Z,17.14
2016-10-07T04:13:29.509Z,17.14
2016-10-07T04:14:12.046Z,17.15
2016-10-07T04:14:54.625Z,17.08
2016-10-07T04:15:37.190Z,17.12
2016-10-07T04:16:19.562Z,17.12
2016-10-07T04:17:02.272Z,17.16
2016-10-07T04:17:44.859Z,17.15
2016-10-07T04:18:27.419Z,17.23
2016-10-07T04:19:10.000Z,17.18
2016-10-07T04:19:52.454Z,17.15
2016-10-07T04:20:35.078Z,17.03
2016-10-07T04:21:17.671Z,17.16
2016-10-07T04:22:00.265Z,17.15
2016-10-07T04:22:42.799Z,17.19
2016-10-07T04:23:25.357Z,17.21
2016-10-07T04:24:07.920Z,17.21
2016-10-07T04:24:51.113Z,17.14
2016-10-07T04:25:33.705Z,17.14
2016-10-07T04:26:16.275Z,17.12
2016-10-07T04:26:58.843Z,17.15
2016-10-07T04:27:41.437Z,17.18
2016-10-07T04:28:23.946Z,17.21
2016-10-07T04:29:06.551Z,17.16
2016-10-07T04:29:49.154Z,17.21
2016-10-07T04:30:31.747Z,17.12
2016-10-07T04:31:14.344Z,17.07
2016-10-07T04:31:56.733Z,17.06
2016-10-07T04:32:39.427Z,16.97
2016-10-07T04:33:22.567Z,17.03
2016-10-07T04:34:05.152Z,17.01
2016-10-07T04:34:47.774Z,16.97
2016-10-07T04:35:30.348Z,16.96
2016-10-07T04:36:12.939Z,16.98
2016-10-07T04:36:55.461Z,16.91
2016-10-07T04:37:38.072Z,16.93
2016-10-07T04:38:20.649Z,17.01
2016-10-07T04:39:03.193Z,17.03
2016-10-07T04:39:45.722Z,16.97
2016-10-07T04:40:28.299Z,16.88
2016-10-07T04:41:10.866Z,17.03
2016-10-07T04:41:53.442Z,17.08
2016-10-07T04:42:35.970Z,17.04
2016-10-07T04:43:18.541Z,17.12
2016-10-07T04:44:01.077Z,17.19
2016-10-07T04:44:43.659Z,17.19
2016-10-07T04:45:26.269Z,17.21
2016-10-07T04:46:08.804Z,17.18
2016-10-07T04:46:51.378Z,17.22
2016-10-07T04:47:33.976Z,17.22
2016-10-07T04:48:16.536Z,17.14
2016-10-07T04:48:59.071Z,17.04
2016-10-07T04:49:41.625Z,17.06
2016-10-07T04:50:24.190Z,16.98
2016-10-07T04:51:06.739Z,16.91
2016-10-07T04:51:49.321Z,16.94
2016-10-07T04:52:31.888Z,17
2016-10-07T04:53:14.407Z,16.96
2016-10-07T04:53:57.034Z,17.03
2016-10-07T04:54:39.609Z,16.93
2016-10-07T04:55:22.196Z,16.91
2016-10-07T04:56:04.708Z,17.01
2016-10-07T04:56:47.330Z,16.89
2016-10-07T04:57:29.949Z,17.01
2016-10-07T04:58:12.492Z,17.04
2016-10-07T04:58:55.048Z,17.01
2016-10-07T04:59:37.468Z,17.01
2016-10-07T05:00:20.157Z,16.85
2016-10-07T05:01:02.788Z,16.93
2016-10-07T05:01:45.371Z,16.89
2016-10-07T05:02:27.906Z,16.97
2016-10-07T05:03:10.485Z,16.97
2016-10-07T05:03:53.080Z,17
2016-10-07T05:04:35.652Z,16.94
2016-10-07T05:05:18.187Z,17
2016-10-07T05:06:00.802Z,17.01
2016-10-07T05:06:43.293Z,17.01
2016-10-07T05:07:25.890Z,16.98
2016-10-07T05:08:08.425Z,17.03
2016-10-07T05:08:51.029Z,16.96
2016-10-07T05:09:33.576Z,16.93
2016-10-07T05:10:16.152Z,17.03
2016-10-07T05:10:58.697Z,17.04
2016-10-07T05:11:41.256Z,16.98
2016-10-07T05:12:23.828Z,16.94
2016-10-07T05:13:06.449Z,17.03
2016-10-07T05:13:48.961Z,17.03
2016-10-07T05:14:31.553Z,17.19
2016-10-07T05:15:14.123Z,17.18
2016-10-07T05:15:56.693Z,17.21
2016-10-07T05:16:39.288Z,17.28
2016-10-07T05:17:21.892Z,17.28
2016-10-07T05:18:04.400Z,17.26
2016-10-07T05:18:46.947Z,17.22
2016-10-07T05:19:29.860Z,17.31
2016-10-07T05:20:12.034Z,17.31
2016-10-07T05:20:54.671Z,17.3
2016-10-07T05:21:37.237Z,17.28
2016-10-07T05:22:19.780Z,17.33
2016-10-07T05:23:03.108Z,17.33
2016-10-07T05:23:45.709Z,17.34
2016-10-07T05:24:28.363Z,17.38
2016-10-07T05:25:10.933Z,17.22
2016-10-07T05:25:53.537Z,17.33
2016-10-07T05:26:35.922Z,17.33
2016-10-07T05:27:18.727Z,17.22
2016-10-07T05:28:01.251Z,17.26
2016-10-07T05:28:43.717Z,17.3
2016-10-07T05:29:26.442Z,17.23
2016-10-07T05:30:08.992Z,17.22
2016-10-07T05:30:51.591Z,17.36
2016-10-07T05:31:34.168Z,17.31
2016-10-07T05:32:16.705Z,17.36
2016-10-07T05:32:59.096Z,17.28
2016-10-07T05:33:41.857Z,17.33
2016-10-07T05:34:24.440Z,17.28
2016-10-07T05:35:06.891Z,17.33
2016-10-07T05:35:49.687Z,17.31
2016-10-07T05:36:32.236Z,17.28
2016-10-07T05:37:14.895Z,17.33
2016-10-07T05:37:57.415Z,17.3
2016-10-07T05:38:40.016Z,17.34
2016-10-07T05:39:22.584Z,17.34
2016-10-07T05:40:05.124Z,17.34
2016-10-07T05:40:47.668Z,17.3
2016-10-07T05:41:30.217Z,17.33
2016-10-07T05:42:12.810Z,17.3
2016-10-07T05:42:55.385Z,17.3
2016-10-07T05:43:37.983Z,17.37
2016-10-07T05:44:20.611Z,17.28
2016-10-07T05:45:03.147Z,17.22
2016-10-07T05:45:45.685Z,17.19
2016-10-07T05:46:28.309Z,17.19
2016-10-07T05:47:11.377Z,17.22
2016-10-07T05:47:53.442Z,17.19
2016-10-07T05:48:36.005Z,17.18
2016-10-07T05:49:18.583Z,17.19
2016-10-07T05:50:01.168Z,17.19
2016-10-07T05:50:43.767Z,17.22
2016-10-07T05:51:26.349Z,17.19
2016-10-07T05:52:08.958Z,17.04
2016-10-07T05:52:51.494Z,17.11
2016-10-07T05:53:34.049Z,17
2016-10-07T05:54:16.613Z,17.04
2016-10-07T05:54:59.162Z,17.04
2016-10-07T05:55:41.710Z,17.04
2016-10-07T05:56:24.321Z,17.01
2016-10-07T05:57:06.870Z,17.01
2016-10-07T05:57:49.497Z,17.01
2016-10-07T05:58:32.077Z,17.03
2016-10-07T05:59:14.649Z,17.08
2016-10-07T05:59:57.238Z,17.06
2016-10-07T06:00:39.752Z,17.06
2016-10-07T06:01:22.127Z,17.04
2016-10-07T06:02:04.854Z,17.07
2016-10-07T06:02:47.390Z,17.14
2016-10-07T06:03:30.009Z,17.12
2016-10-07T06:04:12.530Z,17.14
2016-10-07T06:04:55.124Z,17.22
2016-10-07T06:05:37.667Z,17.16
2016-10-07T06:06:20.240Z,17.19
2016-10-07T06:07:02.779Z,17.18
2016-10-07T06:07:45.212Z,17.06
2016-10-07T06:08:27.872Z,17.06
2016-10-07T06:09:10.414Z,17.15
2016-10-07T06:09:52.977Z,17.08
2016-10-07T06:10:35.568Z,17.15
2016-10-07T06:11:18.119Z,17.12
2016-10-07T06:12:00.595Z,17.03
2016-10-07T06:12:43.188Z,17.03
2016-10-07T06:13:25.771Z,17.03
2016-10-07T06:14:08.389Z,17.03
2016-10-07T06:14:50.919Z,17.01
2016-10-07T06:15:33.461Z,17.12
2016-10-07T06:16:15.990Z,17.01
2016-10-07T06:16:58.616Z,17
2016-10-07T06:17:41.175Z,16.94
2016-10-07T06:18:23.789Z,17.03
2016-10-07T06:19:06.175Z,16.98
2016-10-07T06:19:48.920Z,16.94
2016-10-07T06:20:31.475Z,16.94
2016-10-07T06:21:14.073Z,16.98
2016-10-07T06:21:56.639Z,16.97
2016-10-07T06:22:39.056Z,17.08
2016-10-07T06:23:21.705Z,16.89
2016-10-07T06:24:04.321Z,16.96
2016-10-07T06:24:46.901Z,17
2016-10-07T06:25:29.452Z,16.94
2016-10-07T06:26:11.948Z,16.91
2016-10-07T06:26:54.666Z,16.91
2016-10-07T06:27:37.265Z,16.89
2016-10-07T06:28:19.885Z,16.81
2016-10-07T06:29:02.481Z,16.82
2016-10-07T06:29:45.049Z,16.81
2016-10-07T06:30:27.617Z,16.81
2016-10-07T06:31:10.180Z,16.85
2016-10-07T06:31:52.740Z,16.82
2016-10-07T06:32:35.319Z,16.71
2016-10-07T06:33:17.900Z,16.68
2016-10-07T06:34:00.435Z,16.5
2016-10-07T06:34:42.996Z,16.38
2016-10-07T06:35:25.513Z,16.3
2016-10-07T06:36:08.058Z,16.24
2016-10-07T06:36:50.611Z,16.28
2016-10-07T06:37:33.203Z,16.23
2016-10-07T06:38:15.797Z,16.25
2016-10-07T06:38:58.396Z,16.25
2016-10-07T06:39:40.931Z,16.27
2016-10-07T06:40:23.547Z,16.3
2016-10-07T06:41:06.051Z,16.3
2016-10-07T06:41:48.593Z,16.28
2016-10-07T06:42:31.165Z,16.33
2016-10-07T06:43:13.755Z,16.27
2016-10-07T06:43:56.303Z,16.23
2016-10-07T06:44:38.812Z,16.25
2016-10-07T06:45:21.384Z,16.43
2016-10-07T06:46:03.903Z,16.21
2016-10-07T06:46:46.493Z,16.27
2016-10-07T06:47:29.079Z,16.28
2016-10-07T06:48:11.574Z,16.28
2016-10-07T06:48:54.110Z,16.45
2016-10-07T06:49:36.678Z,16.45
2016-10-07T06:50:19.262Z,16.45
2016-10-07T06:51:01.822Z,16.35
2016-10-07T06:51:44.340Z,16.43
2016-10-07T06:52:26.889Z,16.31
2016-10-07T06:53:09.478Z,16.35
2016-10-07T06:53:52.028Z,16.42
2016-10-07T06:54:34.894Z,16.3
2016-10-07T06:55:17.131Z,16.35
2016-10-07T06:55:59.676Z,16.38
2016-10-07T06:56:42.261Z,16.24
2016-10-07T06:57:24.846Z,16.39
2016-10-07T06:58:07.410Z,16.31
2016-10-07T06:58:49.945Z,16.28
2016-10-07T06:59:32.503Z,16.28
2016-10-07T07:00:15.057Z,16.24
2016-10-07T07:00:57.603Z,16.28
2016-10-07T07:01:40.172Z,16.28
2016-10-07T07:02:22.706Z,16.28
2016-10-07T07:03:05.335Z,16.3
2016-10-07T07:03:47.944Z,16.35
2016-10-07T07:04:30.486Z,16.31
2016-10-07T07:05:13.101Z,16.25
2016-10-07T07:05:55.661Z,16.27
2016-10-07T07:06:38.248Z,16.38
2016-10-07T07:07:20.774Z,16.53
2016-10-07T07:08:03.359Z,16.49
2016-10-07T07:08:45.971Z,16.43
2016-10-07T07:09:28.517Z,16.53
2016-10-07T07:10:11.087Z,16.49
2016-10-07T07:10:53.644Z,16.5
2016-10-07T07:11:36.283Z,16.38
2016-10-07T07:12:18.815Z,16.3
2016-10-07T07:13:01.413Z,16.42
2016-10-07T07:13:43.972Z,16.42
2016-10-07T07:14:26.491Z,16.49
2016-10-07T07:15:08.999Z,16.39
2016-10-07T07:15:51.581Z,16.5
2016-10-07T07:16:34.126Z,16.53
2016-10-07T07:17:16.655Z,16.5
2016-10-07T07:17:59.227Z,16.56
2016-10-07T07:18:41.757Z,16.53
2016-10-07T07:19:24.316Z,16.57
2016-10-07T07:20:06.863Z,16.61
2016-10-07T07:20:49.481Z,16.63
2016-10-07T07:21:32.025Z,16.57
2016-10-07T07:22:14.594Z,16.64
2016-10-07T07:22:57.154Z,16.64
2016-10-07T07:23:39.645Z,16.66
2016-10-07T07:24:22.294Z,16.68
2016-10-07T07:25:04.885Z,16.7
2016-10-07T07:25:47.517Z,16.71
2016-10-07T07:26:30.081Z,16.73
2016-10-07T07:27:12.632Z,16.71
2016-10-07T07:27:55.216Z,16.7
2016-10-07T07:28:37.770Z,16.6
2016-10-07T07:29:20.366Z,16.63
2016-10-07T07:30:02.932Z,16.6
2016-10-07T07:30:45.480Z,16.66
2016-10-07T07:31:28.018Z,16.58
2016-10-07T07:32:10.523Z,16.53
2016-10-07T07:32:53.052Z,16.43
2016-10-07T07:33:35.730Z,16.42
2016-10-07T07:34:18.264Z,16.41
2016-10-07T07:35:00.833Z,16.42
2016-10-07T07:35:43.391Z,16.27
2016-10-07T07:36:26.036Z,16.31
2016-10-07T07:37:08.625Z,16.24
2016-10-07T07:37:51.175Z,16.21
2016-10-07T07:38:33.790Z,16.14
2016-10-07T07:39:16.379Z,16.23
2016-10-07T07:39:58.948Z,16.17
2016-10-07T07:40:41.527Z,16.12
2016-10-07T07:41:24.163Z,16.12
2016-10-07T07:42:06.776Z,16.15
2016-10-07T07:42:49.290Z,16.15
2016-10-07T07:43:31.864Z,16.12
2016-10-07T07:44:14.427Z,16.09
2016-10-07T07:44:56.992Z,16.12
2016-10-07T07:45:39.514Z,16.02
2016-10-07T07:46:22.112Z,16.02
2016-10-07T07:47:04.605Z,16.02
2016-10-07T07:47:47.263Z,16.14
2016-10-07T07:48:29.885Z,16.07
2016-10-07T07:49:12.442Z,16.11
2016-10-07T07:49:55.018Z,16.15
2016-10-07T07:50:37.583Z,16.17
2016-10-07T07:51:20.197Z,16.23
2016-10-07T07:52:02.766Z,16.25
2016-10-07T07:52:45.387Z,16.28
2016-10-07T07:53:27.961Z,16.12
2016-10-07T07:54:10.552Z,16.17
2016-10-07T07:54:53.105Z,16.12
2016-10-07T07:55:35.685Z,16.12
2016-10-07T07:56:18.916Z,16.17
2016-10-07T07:57:00.846Z,16.12
2016-10-07T07:57:43.461Z,16.31
2016-10-07T07:58:26.035Z,16.24
2016-10-07T07:59:08.478Z,16.15
2016-10-07T07:59:51.135Z,16.28
2016-10-07T08:00:33.670Z,16.15
2016-10-07T08:01:16.221Z,16.2
2016-10-07T08:01:58.771Z,16.12
2016-10-07T08:02:41.311Z,16.08
2016-10-07T08:03:23.843Z,16.17
2016-10-07T08:04:06.396Z,16.11
2016-10-07T08:04:48.959Z,16.2
2016-10-07T08:05:31.508Z,16.17
2016-10-07T08:06:14.060Z,16.14
2016-10-07T08:06:56.644Z,16.21
2016-10-07T08:07:39.168Z,16.08
2016-10-07T08:08:21.705Z,16.12
2016-10-07T08:09:04.381Z,16.21
2016-10-07T08:09:46.855Z,16.14
2016-10-07T08:10:29.536Z,16.09
2016-10-07T08:11:12.124Z,16.09
2016-10-07T08:11:54.674Z,16.07
2016-10-07T08:12:37.286Z,16.08
2016-10-07T08:13:19.881Z,16.14
2016-10-07T08:14:02.462Z,16.04
2016-10-07T08:14:45.045Z,16.14
2016-10-07T08:15:27.602Z,16.05
2016-10-07T08:16:10.028Z,16.02
2016-10-07T08:16:52.756Z,16.2
2016-10-07T08:17:35.308Z,16.12
2016-10-07T08:18:17.905Z,16.23
2016-10-07T08:19:00.458Z,16.17
2016-10-07T08:19:43.013Z,16.17
2016-10-07T08:20:25.579Z,16.12
2016-10-07T08:21:08.124Z,16.24
2016-10-07T08:21:50.677Z,16.27
2016-10-07T08:22:33.268Z,16.28
2016-10-07T08:23:15.830Z,16.23
2016-10-07T08:23:58.387Z,16.25
2016-10-07T08:24:40.958Z,16.12
2016-10-07T08:25:23.505Z,16.25
2016-10-07T08:26:06.073Z,16.2
2016-10-07T08:26:48.623Z,16.31
2016-10-07T08:27:31.223Z,16.15
2016-10-07T08:28:13.855Z,16.23
2016-10-07T08:28:56.426Z,16.28
2016-10-07T08:29:39.014Z,16.24
2016-10-07T08:30:21.639Z,16.2
2016-10-07T08:31:04.180Z,16.12
2016-10-07T08:31:46.690Z,16.07
2016-10-07T08:32:29.285Z,16.04
2016-10-07T08:33:11.869Z,16.11
2016-10-07T08:33:54.391Z,16.15
2016-10-07T08:34:36.959Z,16.12
2016-10-07T08:35:19.532Z,16.15
2016-10-07T08:36:02.109Z,15.96
2016-10-07T08:36:44.475Z,15.94
2016-10-07T08:37:27.292Z,16.01
2016-10-07T08:38:09.841Z,15.9
2016-10-07T08:38:52.273Z,15.94
2016-10-07T08:39:35.043Z,15.93
2016-10-07T08:40:17.622Z,16.08
2016-10-07T08:41:00.133Z,16.07
2016-10-07T08:41:42.701Z,16.08
2016-10-07T08:42:25.305Z,16.07
2016-10-07T08:43:07.928Z,16.09
2016-10-07T08:43:50.466Z,16.11
2016-10-07T08:44:33.108Z,16.17
2016-10-07T08:45:15.658Z,16.17
2016-10-07T08:45:58.245Z,16.2
2016-10-07T08:46:40.810Z,16.09
2016-10-07T08:47:23.353Z,16.17
2016-10-07T08:48:05.931Z,16.15
2016-10-07T08:48:48.487Z,16.17
2016-10-07T08:49:31.061Z,16.24
2016-10-07T08:50:13.613Z,16.11
2016-10-07T08:50:56.123Z,16.08
2016-10-07T08:52:21.450Z,16.14
2016-10-07T08:53:04.058Z,16.15
2016-10-07T08:53:46.617Z,16.21
2016-10-07T08:54:29.199Z,16.05
2016-10-07T08:55:11.744Z,16.07
2016-10-07T08:55:54.288Z,16.09
2016-10-07T08:56:36.868Z,16.08
2016-10-07T08:57:19.390Z,16.04
2016-10-07T08:58:01.941Z,16.07
2016-10-07T08:58:44.464Z,16.02
2016-10-07T08:59:26.935Z,16.05
2016-10-07T09:00:09.515Z,16.04
2016-10-07T09:00:52.131Z,16.04
2016-10-07T09:01:34.714Z,16.12
2016-10-07T09:02:17.252Z,16.08
2016-10-07T09:02:59.795Z,16.09
2016-10-07T09:03:42.368Z,16.12
2016-10-07T09:04:24.882Z,16.12
2016-10-07T09:05:07.283Z,16.11
2016-10-07T09:05:49.945Z,16.14
2016-10-07T09:06:32.483Z,16.11
2016-10-07T09:07:15.072Z,16.2
2016-10-07T09:07:57.636Z,16.14
2016-10-07T09:08:40.195Z,16.12
2016-10-07T09:09:22.781Z,16.07
2016-10-07T09:10:05.343Z,16.11
2016-10-07T09:10:47.991Z,16.14
2016-10-07T09:11:30.552Z,16.14
2016-10-07T09:12:13.124Z,16.17
2016-10-07T09:12:55.706Z,16.11